createdAt,value
2019-02-22T00:00:38.450Z,28.57
2019-02-22T00:03:40.419Z,28.00
2019-02-22T00:06:42.423Z,27.57
2019-02-22T00:09:49.506Z,27.60
2019-02-22T00:12:48.293Z,28.27
2019-02-22T00:15:50.348Z,28.93
2019-02-22T00:18:52.547Z,28.57
2019-02-22T00:21:54.503Z,28.60
2019-02-22T00:24:56.476Z,30.23
2019-02-22T00:27:58.476Z,28.17
2019-02-22T00:31:00.376Z,27.17
2019-02-22T00:34:02.370Z,26.77
2019-02-22T00:37:04.292Z,26.87
2019-02-22T00:40:06.281Z,26.00
2019-02-22T00:43:08.220Z,26.40
2019-02-22T00:46:10.145Z,25.00
2019-02-22T00:49:12.117Z,24.10
2019-02-22T00:52:14.041Z,26.03
2019-02-22T00:55:15.983Z,24.23
2019-02-22T00:58:17.937Z,24.40
2019-02-22T01:01:19.878Z,24.60
2019-02-22T01:04:21.919Z,23.57
2019-02-22T01:07:24.519Z,25.50
2019-02-22T01:10:31.152Z,22.63
2019-02-22T01:13:30.343Z,22.97
2019-02-22T01:16:32.304Z,21.13
2019-02-22T01:19:34.362Z,23.27
2019-02-22T01:22:36.518Z,20.60
2019-02-22T01:25:38.425Z,21.80
2019-02-22T01:28:40.374Z,22.07
2019-02-22T01:31:42.223Z,21.80
2019-02-22T01:34:44.160Z,20.53
2019-02-22T01:37:46.074Z,19.77
2019-02-22T01:40:47.985Z,20.53
2019-02-22T01:43:49.886Z,19.27
2019-02-22T01:46:51.750Z,21.03
2019-02-22T01:49:53.905Z,19.90
2019-02-22T01:52:55.859Z,20.00
2019-02-22T01:55:57.859Z,19.80
2019-02-22T01:59:00.311Z,17.33
2019-02-22T02:02:02.321Z,18.23
2019-02-22T02:05:05.611Z,18.70
2019-02-22T02:08:07.649Z,18.50
2019-02-22T02:11:09.546Z,18.37
2019-02-22T02:14:11.507Z,17.43
2019-02-22T02:17:13.514Z,16.57
2019-02-22T02:20:16.259Z,17.03
2019-02-22T02:23:18.259Z,15.17
2019-02-22T02:26:20.188Z,15.80
2019-02-22T02:29:22.192Z,15.47
2019-02-22T02:32:24.116Z,13.40
2019-02-22T02:35:26.101Z,14.80
2019-02-22T02:38:28.180Z,13.63
2019-02-22T02:41:30.186Z,13.63
2019-02-22T02:44:32.208Z,14.23
2019-02-22T02:47:34.144Z,12.73
2019-02-22T02:50:36.150Z,10.50
2019-02-22T02:53:38.075Z,10.30
2019-02-22T02:56:40.003Z,9.77
2019-02-22T02:59:41.980Z,9.27
2019-02-22T03:02:45.236Z,9.97
2019-02-22T03:05:51.912Z,8.33
2019-02-22T03:08:53.850Z,10.00
2019-02-22T03:11:55.884Z,8.97
2019-02-22T03:14:57.831Z,9.30
2019-02-22T03:17:59.838Z,8.73
2019-02-22T03:21:01.996Z,9.40
2019-02-22T03:24:03.942Z,9.27
2019-02-22T03:27:05.927Z,5.07
2019-02-22T03:30:09.781Z,3.37
2019-02-22T03:33:12.070Z,4.30
2019-02-22T03:36:14.024Z,10.73
2019-02-22T03:39:15.946Z,12.60
2019-02-22T03:42:17.985Z,7.27
2019-02-22T03:45:19.934Z,7.30
2019-02-22T03:48:21.855Z,9.37
2019-02-22T03:51:23.797Z,6.83
2019-02-22T03:54:25.909Z,14.73
2019-02-22T03:57:27.871Z,9.67
2019-02-22T04:00:29.875Z,6.70
2019-02-22T04:03:31.827Z,3.70
2019-02-22T04:06:33.837Z,3.43
2019-02-22T04:09:35.822Z,3.63
2019-02-22T04:12:37.791Z,3.30
2019-02-22T04:15:39.711Z,4.57
2019-02-22T04:18:41.641Z,3.53
2019-02-22T04:21:43.796Z,4.33
2019-02-22T04:24:45.759Z,5.27
2019-02-22T04:27:47.682Z,6.70
2019-02-22T04:30:49.586Z,5.93
2019-02-22T04:33:51.594Z,6.40
2019-02-22T04:36:53.512Z,4.47
2019-02-22T04:39:55.506Z,7.00
2019-02-22T04:42:57.479Z,7.80
2019-02-22T04:45:59.592Z,10.73
2019-02-22T04:49:01.597Z,12.73
2019-02-22T04:52:03.662Z,17.73
2019-02-22T04:55:05.676Z,16.47
2019-02-22T04:58:08.048Z,13.60
2019-02-22T05:01:09.997Z,11.10
2019-02-22T05:04:12.146Z,13.97
2019-02-22T05:07:14.108Z,13.37
2019-02-22T05:10:16.099Z,18.60
2019-02-22T05:13:18.129Z,20.30
2019-02-22T05:16:20.136Z,18.53
2019-02-22T05:19:22.121Z,14.70
2019-02-22T05:22:24.241Z,10.77
2019-02-22T05:25:26.227Z,12.80
2019-02-22T05:28:28.159Z,10.83
2019-02-22T05:31:30.066Z,9.27
2019-02-22T05:34:32.072Z,15.97
2019-02-22T05:37:34.056Z,18.50
2019-02-22T05:40:36.030Z,13.67
2019-02-22T05:43:38.020Z,18.37
2019-02-22T05:46:41.437Z,12.57
2019-02-22T05:49:43.391Z,10.60
2019-02-22T05:52:45.544Z,9.87
2019-02-22T05:55:47.493Z,8.60
2019-02-22T05:58:49.420Z,11.17
2019-02-22T06:01:51.349Z,13.93
2019-02-22T06:04:53.269Z,48.80
2019-02-22T06:07:55.164Z,102.80
2019-02-22T06:10:57.037Z,29.60
2019-02-22T06:13:59.054Z,24.03
2019-02-22T06:17:01.006Z,123.43
2019-02-22T06:20:09.081Z,27.67
2019-02-22T06:23:11.158Z,59.57
2019-02-22T06:26:13.122Z,54.80
2019-02-22T06:29:15.044Z,39.03
2019-02-22T06:32:16.964Z,31.60
2019-02-22T06:35:18.875Z,21.30
2019-02-22T06:38:20.830Z,19.73
2019-02-22T06:41:22.729Z,18.43
2019-02-22T06:44:24.713Z,15.13
2019-02-22T06:47:28.405Z,24.13
2019-02-22T06:53:34.466Z,26.10
2019-02-22T06:56:36.492Z,27.33
2019-02-22T06:59:38.388Z,26.23
2019-02-22T07:02:40.385Z,18.80
2019-02-22T07:05:42.321Z,20.03
2019-02-22T07:08:44.328Z,20.83
2019-02-22T07:11:50.558Z,35.67
2019-02-22T07:14:52.519Z,49.70
2019-02-22T07:17:54.506Z,32.30
2019-02-22T07:20:56.439Z,34.13
2019-02-22T07:23:58.646Z,31.17
2019-02-22T07:27:00.568Z,18.70
2019-02-22T07:30:04.272Z,19.77
2019-02-22T07:33:06.191Z,18.00
2019-02-22T07:36:08.170Z,20.57
2019-02-22T07:39:10.131Z,18.67
2019-02-22T07:42:12.103Z,14.13
2019-02-22T07:45:14.039Z,15.87
2019-02-22T07:48:16.125Z,13.97
2019-02-22T07:51:18.201Z,44.90
2019-02-22T07:54:20.243Z,32.20
2019-02-22T07:57:22.202Z,36.73
2019-02-22T08:00:24.677Z,20.00
2019-02-22T08:03:26.560Z,27.23
2019-02-22T08:06:28.525Z,18.80
2019-02-22T08:09:30.444Z,11.40
2019-02-22T08:12:32.503Z,19.13
2019-02-22T08:15:35.397Z,15.07
2019-02-22T08:18:37.871Z,13.87
2019-02-22T08:21:39.862Z,10.50
2019-02-22T08:24:42.029Z,12.63
2019-02-22T08:27:53.150Z,10.33
2019-02-22T08:30:47.898Z,14.47
2019-02-22T08:33:49.844Z,12.07
2019-02-22T08:36:51.885Z,19.80
2019-02-22T08:39:58.520Z,14.93
2019-02-22T08:42:59.079Z,35.20
2019-02-22T08:46:01.054Z,12.63
2019-02-22T08:49:03.564Z,30.87
2019-02-22T08:52:05.728Z,14.67
2019-02-22T08:55:07.746Z,18.17
2019-02-22T08:58:09.811Z,13.77
2019-02-22T09:01:11.708Z,22.07
2019-02-22T09:04:13.718Z,12.23
2019-02-22T09:07:15.634Z,15.90
2019-02-22T09:10:17.513Z,23.93
2019-02-22T09:13:19.478Z,24.40
2019-02-22T09:16:21.427Z,31.37
2019-02-22T09:19:23.407Z,52.33
2019-02-22T09:22:25.306Z,30.27
2019-02-22T09:25:27.510Z,49.20
2019-02-22T09:28:29.489Z,41.00
2019-02-22T09:31:31.439Z,11.00
2019-02-22T09:34:33.397Z,24.43
2019-02-22T09:37:35.356Z,12.23
2019-02-22T09:40:37.323Z,16.03
2019-02-22T09:43:39.334Z,28.27
2019-02-22T09:46:41.273Z,7.17
2019-02-22T09:49:43.664Z,27.90
2019-02-22T09:52:45.544Z,7.80
2019-02-22T09:55:47.554Z,9.17
2019-02-22T09:58:50.361Z,24.67
2019-02-22T10:01:52.318Z,15.87
2019-02-22T10:04:55.605Z,14.57
2019-02-22T10:07:57.975Z,15.20
2019-02-22T10:10:59.939Z,12.10
2019-02-22T10:14:06.628Z,16.47
2019-02-22T10:17:05.799Z,12.17
2019-02-22T10:20:10.888Z,10.43
2019-02-22T10:23:12.840Z,14.40
2019-02-22T10:26:15.005Z,11.87
2019-02-22T10:29:16.962Z,5.43
2019-02-22T10:32:18.899Z,5.60
2019-02-22T10:35:20.889Z,7.93
2019-02-22T10:38:22.866Z,6.30
2019-02-22T10:41:24.838Z,7.80
2019-02-22T10:44:26.785Z,7.03
2019-02-22T10:47:28.740Z,6.10
2019-02-22T10:50:31.601Z,6.13
2019-02-22T10:53:33.528Z,5.47
2019-02-22T10:56:35.638Z,4.90
2019-02-22T10:59:37.596Z,4.67
2019-02-22T11:02:39.642Z,4.40
2019-02-22T11:05:41.601Z,4.13
2019-02-22T11:08:43.514Z,5.87
2019-02-22T11:11:45.495Z,11.87
2019-02-22T11:14:47.456Z,4.90
2019-02-22T11:17:49.376Z,6.67
2019-02-22T11:20:51.384Z,7.33
2019-02-22T11:23:53.292Z,7.90
2019-02-22T11:26:55.579Z,7.30
2019-02-22T11:29:57.579Z,6.77
2019-02-22T11:32:59.516Z,5.47
2019-02-22T11:36:01.474Z,5.43
2019-02-22T11:39:05.528Z,15.77
2019-02-22T11:42:08.787Z,12.73
2019-02-22T11:45:11.024Z,25.27
2019-02-22T11:48:12.942Z,8.10
2019-02-22T11:51:15.898Z,25.10
2019-02-22T11:54:17.804Z,18.40
2019-02-22T11:57:20.207Z,25.43
2019-02-22T12:00:26.092Z,29.90
2019-02-22T12:03:28.106Z,30.73
2019-02-22T12:06:30.058Z,6.90
2019-02-22T12:09:31.962Z,30.13
2019-02-22T12:12:33.874Z,12.10
2019-02-22T12:15:35.834Z,8.53
2019-02-22T12:18:38.104Z,4.23
2019-02-22T12:21:40.062Z,4.70
2019-02-22T12:24:42.024Z,10.60
2019-02-22T12:27:44.034Z,12.20
2019-02-22T12:30:45.980Z,3.93
2019-02-22T12:33:48.208Z,10.03
2019-02-22T12:36:50.388Z,4.80
2019-02-22T12:39:52.413Z,4.43
2019-02-22T12:42:54.358Z,11.57
2019-02-22T12:45:56.404Z,7.30
2019-02-22T12:48:58.328Z,7.10
2019-02-22T12:52:00.713Z,15.57
2019-02-22T12:55:04.769Z,10.97
2019-02-22T12:58:06.830Z,4.33
2019-02-22T13:01:08.716Z,5.97
2019-02-22T13:04:10.732Z,5.63
2019-02-22T13:07:13.830Z,4.23
2019-02-22T13:10:16.258Z,5.57
2019-02-22T13:13:18.252Z,4.20
2019-02-22T13:16:20.281Z,4.23
2019-02-22T13:19:22.280Z,5.27
2019-02-22T13:22:24.306Z,10.90
2019-02-22T13:25:26.238Z,10.50
2019-02-22T13:28:28.401Z,5.70
2019-02-22T13:31:30.567Z,5.13
2019-02-22T13:34:32.543Z,5.57
2019-02-22T13:37:34.497Z,6.17
2019-02-22T13:40:36.498Z,4.70
2019-02-22T13:43:38.443Z,7.27
2019-02-22T13:46:40.449Z,5.77
2019-02-22T13:49:42.496Z,5.83
2019-02-22T13:52:45.281Z,7.10
2019-02-22T13:55:47.436Z,7.70
2019-02-22T13:58:49.543Z,5.67
2019-02-22T14:01:52.975Z,6.97
2019-02-22T14:04:55.574Z,7.57
2019-02-22T14:07:57.562Z,6.07
2019-02-22T14:10:59.591Z,5.93
2019-02-22T14:14:01.683Z,7.50
2019-02-22T14:17:03.847Z,6.03
2019-02-22T14:20:07.089Z,5.93
2019-02-22T14:23:09.155Z,6.13
2019-02-22T14:26:11.126Z,5.97
2019-02-22T14:29:13.334Z,6.53
2019-02-22T14:32:15.301Z,7.33
2019-02-22T14:35:17.444Z,8.03
2019-02-22T14:38:19.489Z,26.77
2019-02-22T14:41:21.579Z,6.47
2019-02-22T14:44:23.758Z,9.20
2019-02-22T14:47:25.919Z,19.10
2019-02-22T14:50:27.874Z,24.60
2019-02-22T14:53:30.432Z,22.00
2019-02-22T14:56:32.447Z,20.13
2019-02-22T14:59:34.597Z,6.33
2019-02-22T15:02:36.763Z,6.00
2019-02-22T15:05:38.863Z,15.87
2019-02-22T15:08:40.838Z,11.80
2019-02-22T15:11:43.836Z,13.53
2019-02-22T15:14:45.969Z,8.47
2019-02-22T15:17:49.725Z,7.43
2019-02-22T15:20:51.843Z,13.33
2019-02-22T15:23:53.999Z,18.13
2019-02-22T15:26:56.063Z,12.70
2019-02-22T15:29:58.354Z,6.40
2019-02-22T15:33:00.362Z,8.07
2019-02-22T15:36:02.491Z,7.83
2019-02-22T15:39:05.110Z,5.53
2019-02-22T15:42:08.965Z,9.40
2019-02-22T15:45:16.457Z,14.97
2019-02-22T15:48:18.475Z,11.83
2019-02-22T15:51:20.489Z,13.27
2019-02-22T15:54:22.425Z,13.27
2019-02-22T15:57:25.202Z,16.00
2019-02-22T16:00:32.503Z,8.43
2019-02-22T16:03:39.226Z,8.60
2019-02-22T16:06:41.288Z,16.43
2019-02-22T16:09:43.459Z,23.97
2019-02-22T16:12:45.776Z,12.63
2019-02-22T16:15:48.566Z,9.30
2019-02-22T16:18:50.565Z,7.93
2019-02-22T16:21:52.581Z,10.73
2019-02-22T16:24:54.963Z,9.77
2019-02-22T16:27:56.870Z,10.53
2019-02-22T16:31:00.103Z,15.40
2019-02-22T16:34:02.068Z,13.33
2019-02-22T16:37:04.034Z,10.57
2019-02-22T16:40:08.832Z,11.83
2019-02-22T16:43:12.652Z,16.10
2019-02-22T16:46:15.134Z,14.03
2019-02-22T16:49:17.336Z,26.40
2019-02-22T16:52:19.304Z,13.60
2019-02-22T16:55:23.351Z,11.40
2019-02-22T16:58:25.490Z,22.70
2019-02-22T17:01:28.217Z,14.00
2019-02-22T17:04:30.239Z,12.93
2019-02-22T17:07:33.095Z,13.27
2019-02-22T17:10:37.015Z,13.90
2019-02-22T17:13:39.953Z,14.73
2019-02-22T17:16:46.078Z,11.90
2019-02-22T17:19:47.320Z,13.47
2019-02-22T17:22:51.225Z,20.43
2019-02-22T17:25:53.145Z,23.43
2019-02-22T17:28:55.165Z,52.77
2019-02-22T17:31:57.334Z,13.30
2019-02-22T17:35:01.250Z,13.33
2019-02-22T17:38:03.808Z,14.20
2019-02-22T17:41:06.191Z,58.87
2019-02-22T17:44:08.165Z,130.27
2019-02-22T17:47:12.642Z,136.63
2019-02-22T17:50:14.880Z,82.77
2019-02-22T17:53:16.957Z,104.70
2019-02-22T17:56:18.956Z,92.00
2019-02-22T17:59:20.854Z,76.57
2019-02-22T18:02:24.704Z,67.97
2019-02-22T18:05:28.077Z,44.60
2019-02-22T18:08:30.845Z,31.43
2019-02-22T18:11:32.789Z,41.07
2019-02-22T18:14:34.809Z,58.03
2019-02-22T18:17:36.768Z,42.73
2019-02-22T18:20:39.022Z,46.27
2019-02-22T18:23:41.201Z,18.00
2019-02-22T18:26:45.984Z,44.57
2019-02-22T18:29:48.212Z,83.90
2019-02-22T18:32:50.567Z,62.03
2019-02-22T18:35:52.947Z,49.67
2019-02-22T18:38:56.834Z,46.70
2019-02-22T18:41:59.118Z,59.97
2019-02-22T18:45:03.166Z,55.70
2019-02-22T18:48:06.138Z,52.00
2019-02-22T18:51:09.960Z,37.97
2019-02-22T18:54:12.333Z,58.80
2019-02-22T18:57:14.347Z,93.97
2019-02-22T19:00:20.298Z,71.80
2019-02-22T19:03:25.087Z,106.50
2019-02-22T19:06:27.067Z,47.97
2019-02-22T19:09:29.049Z,48.57
2019-02-22T19:12:32.422Z,31.17
2019-02-22T19:15:35.616Z,24.33
2019-02-22T19:18:40.971Z,30.63
2019-02-22T19:21:43.283Z,31.93
2019-02-22T19:24:45.266Z,26.33
2019-02-22T19:27:47.250Z,39.53
2019-02-22T19:30:49.201Z,44.60
2019-02-22T19:33:51.321Z,25.87
2019-02-22T19:36:55.772Z,37.13
2019-02-22T19:40:01.910Z,50.73
2019-02-22T19:43:06.259Z,49.67
2019-02-22T19:46:08.199Z,21.57
2019-02-22T19:49:10.157Z,17.27
2019-02-22T19:52:12.750Z,67.17
2019-02-22T19:55:19.106Z,38.60
2019-02-22T19:58:26.703Z,77.63
2019-02-22T20:01:29.363Z,42.63
2019-02-22T20:04:31.406Z,40.17
2019-02-22T20:07:34.043Z,67.27
2019-02-22T20:10:41.525Z,134.87
2019-02-22T20:13:44.881Z,23.57
2019-02-22T20:16:48.639Z,103.37
2019-02-22T20:19:52.578Z,83.83
2019-02-22T20:22:54.535Z,76.50
2019-02-22T20:25:58.576Z,44.73
2019-02-22T20:29:00.460Z,48.93
2019-02-22T20:32:02.747Z,110.10
2019-02-22T20:35:09.485Z,111.83
2019-02-22T20:38:11.639Z,113.60
2019-02-22T20:41:13.576Z,90.67
2019-02-22T20:44:15.564Z,90.23
2019-02-22T20:47:17.564Z,66.00
2019-02-22T20:50:23.158Z,55.77
2019-02-22T20:53:25.809Z,32.80
2019-02-22T20:56:29.217Z,29.47
2019-02-22T20:59:32.441Z,28.77
2019-02-22T21:02:34.435Z,51.87
2019-02-22T21:05:36.412Z,42.73
2019-02-22T21:08:38.409Z,45.47
2019-02-22T21:11:40.454Z,27.47
2019-02-22T21:14:44.322Z,40.80
2019-02-22T21:17:48.270Z,50.77
2019-02-22T21:20:50.258Z,52.60
2019-02-22T21:23:52.183Z,43.20
2019-02-22T21:26:54.123Z,44.33
2019-02-22T21:29:58.995Z,36.33
2019-02-22T21:33:05.170Z,52.67
2019-02-22T21:36:07.904Z,27.97
2019-02-22T21:39:09.918Z,38.87
2019-02-22T21:42:19.838Z,82.83
2019-02-22T21:45:16.365Z,48.77
2019-02-22T21:48:27.279Z,87.60
2019-02-22T21:51:22.717Z,50.77
2019-02-22T21:54:24.647Z,67.43
2019-02-22T21:57:26.636Z,52.00
2019-02-22T22:00:29.518Z,63.23
2019-02-22T22:03:31.517Z,36.93
2019-02-22T22:06:33.523Z,67.73
2019-02-22T22:09:40.490Z,88.97
2019-02-22T22:12:44.023Z,150.20
2019-02-22T22:15:46.082Z,84.70
2019-02-22T22:18:48.083Z,121.13
2019-02-22T22:21:50.004Z,59.87
2019-02-22T22:24:52.038Z,22.23
2019-02-22T22:27:54.539Z,24.73
2019-02-22T22:30:56.444Z,20.07
2019-02-22T22:33:58.398Z,22.63
2019-02-22T22:37:00.429Z,22.73
2019-02-22T22:40:02.569Z,23.17
2019-02-22T22:43:04.564Z,21.10
2019-02-22T22:46:06.550Z,24.40
2019-02-22T22:49:08.570Z,30.20
2019-02-22T22:52:10.530Z,66.20
2019-02-22T22:55:12.523Z,100.13
2019-02-22T22:58:14.484Z,65.63
2019-02-22T23:01:17.270Z,93.57
2019-02-22T23:04:19.475Z,46.63
2019-02-22T23:07:21.452Z,43.57
2019-02-22T23:10:23.387Z,40.90
2019-02-22T23:13:25.458Z,25.20
2019-02-22T23:16:27.577Z,19.77
2019-02-22T23:19:29.503Z,22.03
2019-02-22T23:22:31.462Z,18.63
2019-02-22T23:25:33.384Z,22.30
2019-02-22T23:28:35.358Z,27.90
2019-02-22T23:31:37.350Z,42.70
2019-02-22T23:34:39.281Z,43.97
2019-02-22T23:37:41.249Z,40.17
2019-02-22T23:40:43.260Z,25.67
2019-02-22T23:43:45.183Z,24.67
2019-02-22T23:46:47.140Z,22.00
2019-02-22T23:49:49.386Z,20.20
2019-02-22T23:52:51.292Z,20.73
2019-02-22T23:55:53.171Z,21.97
2019-02-22T23:58:55.149Z,23.77
